sensor_id;sensor_type;location;lat;lon;timestamp;pressure;altitude;pressure_sealevel;temperature;humidity
65997;BME280;52765;52.258;21.052;2023-04-15T00:01:43;99865.88;;;10.85;89.42
65997;BME280;52765;52.258;21.052;2023-04-15T00:04:09;99870.59;;;10.91;89.38
65997;BME280;52765;52.258;21.052;2023-04-15T00:06:36;99859.84;;;10.83;89.37
65997;BME280;52765;52.258;21.052;2023-04-15T00:09:02;99862.03;;;10.88;89.19
65997;BME280;52765;52.258;21.052;2023-04-15T00:11:27;99870.94;;;10.88;88.73
65997;BME280;52765;52.258;21.052;2023-04-15T00:13:53;99864.38;;;10.91;88.62
65997;BME280;52765;52.258;21.052;2023-04-15T00:16:19;99868.25;;;10.88;88.75
65997;BME280;52765;52.258;21.052;2023-04-15T00:18:44;99871.94;;;10.87;88.84
65997;BME280;52765;52.258;21.052;2023-04-15T00:21:10;99863.19;;;10.85;89.69
65997;BME280;52765;52.258;21.052;2023-04-15T00:23:35;99871.78;;;10.81;91.66
65997;BME280;52765;52.258;21.052;2023-04-15T00:26:01;99871.59;;;10.82;91.88
65997;BME280;52765;52.258;21.052;2023-04-15T00:28:26;99851.75;;;10.75;92.87
65997;BME280;52765;52.258;21.052;2023-04-15T00:30:52;99861.38;;;10.78;93.69
65997;BME280;52765;52.258;21.052;2023-04-15T00:33:17;99857.31;;;10.73;95.06
65997;BME280;52765;52.258;21.052;2023-04-15T00:35:43;99860.34;;;10.70;95.18
65997;BME280;52765;52.258;21.052;2023-04-15T00:38:08;99856.66;;;10.71;94.16
65997;BME280;52765;52.258;21.052;2023-04-15T00:40:43;99861.53;;;10.76;93.04
65997;BME280;52765;52.258;21.052;2023-04-15T00:43:08;99857.47;;;10.80;93.05
65997;BME280;52765;52.258;21.052;2023-04-15T00:45:34;99861.88;;;10.73;93.50
65997;BME280;52765;52.258;21.052;2023-04-15T00:47:59;99863.72;;;10.72;95.27
65997;BME280;52765;52.258;21.052;2023-04-15T00:50:25;99857.81;;;10.69;96.87
65997;BME280;52765;52.258;21.052;2023-04-15T00:52:53;99870.13;;;10.63;99.11
65997;BME280;52765;52.258;21.052;2023-04-15T00:55:20;99855.50;;;10.58;99.83
65997;BME280;52765;52.258;21.052;2023-04-15T00:57:45;99854.63;;;10.57;100.00
65997;BME280;52765;52.258;21.052;2023-04-15T01:00:11;99864.22;;;10.51;100.00
65997;BME280;52765;52.258;21.052;2023-04-15T01:02:37;99858.19;;;10.49;100.00
65997;BME280;52765;52.258;21.052;2023-04-15T01:05:03;99861.22;;;10.46;100.00
65997;BME280;52765;52.258;21.052;2023-04-15T01:07:35;99849.41;;;10.47;100.00
65997;BME280;52765;52.258;21.052;2023-04-15T01:10:04;99853.97;;;10.47;99.33
65997;BME280;52765;52.258;21.052;2023-04-15T01:12:31;99847.25;;;10.43;99.87
65997;BME280;52765;52.258;21.052;2023-04-15T01:14:58;99863.22;;;10.36;100.00
65997;BME280;52765;52.258;21.052;2023-04-15T01:17:24;99858.84;;;10.35;100.00
65997;BME280;52765;52.258;21.052;2023-04-15T01:19:50;99858.19;;;10.41;100.00
65997;BME280;52765;52.258;21.052;2023-04-15T01:22:16;99855.16;;;10.44;100.00
65997;BME280;52765;52.258;21.052;2023-04-15T01:24:54;99850.44;;;10.46;100.00
65997;BME280;52765;52.258;21.052;2023-04-15T01:27:21;99860.34;;;10.46;100.00
65997;BME280;52765;52.258;21.052;2023-04-15T01:29:47;99858.50;;;10.38;100.00
65997;BME280;52765;52.258;21.052;2023-04-15T01:32:12;99860.88;;;10.33;100.00
65997;BME280;52765;52.258;21.052;2023-04-15T01:34:38;99856.47;;;10.32;100.00
65997;BME280;52765;52.258;21.052;2023-04-15T01:37:03;99858.63;;;10.28;100.00
65997;BME280;52765;52.258;21.052;2023-04-15T01:39:31;99849.22;;;10.24;100.00
65997;BME280;52765;52.258;21.052;2023-04-15T01:41:56;99855.78;;;10.22;100.00
65997;BME280;52765;52.258;21.052;2023-04-15T01:44:22;99853.59;;;10.25;100.00
65997;BME280;52765;52.258;21.052;2023-04-15T01:46:47;99860.81;;;10.25;100.00
65997;BME280;52765;52.258;21.052;2023-04-15T01:49:13;99852.75;;;10.25;100.00
65997;BME280;52765;52.258;21.052;2023-04-15T01:51:38;99852.75;;;10.25;100.00
65997;BME280;52765;52.258;21.052;2023-04-15T01:54:04;99854.25;;;10.19;100.00
65997;BME280;52765;52.258;21.052;2023-04-15T01:56:29;99855.94;;;10.20;100.00
65997;BME280;52765;52.258;21.052;2023-04-15T01:58:55;99856.75;;;10.21;100.00
65997;BME280;52765;52.258;21.052;2023-04-15T02:01:21;99863.00;;;10.21;100.00
65997;BME280;52765;52.258;21.052;2023-04-15T02:03:46;99855.94;;;10.20;100.00
65997;BME280;52765;52.258;21.052;2023-04-15T02:06:15;99850.03;;;10.16;100.00
65997;BME280;52765;52.258;21.052;2023-04-15T02:08:40;99857.13;;;10.17;100.00
65997;BME280;52765;52.258;21.052;2023-04-15T02:11:06;99853.91;;;10.14;100.00
65997;BME280;52765;52.258;21.052;2023-04-15T02:13:31;99848.00;;;10.10;100.00
65997;BME280;52765;52.258;21.052;2023-04-15T02:15:57;99854.94;;;10.13;100.00
65997;BME280;52765;52.258;21.052;2023-04-15T02:18:23;99851.38;;;10.12;100.00
65997;BME280;52765;52.258;21.052;2023-04-15T02:20:51;99846.00;;;10.12;100.00
65997;BME280;52765;52.258;21.052;2023-04-15T02:23:16;99845.47;;;10.09;100.00
65997;BME280;52765;52.258;21.052;2023-04-15T02:25:42;99845.16;;;10.12;100.00
65997;BME280;52765;52.258;21.052;2023-04-15T02:28:07;99846.69;;;10.14;100.00
65997;BME280;52765;52.258;21.052;2023-04-15T02:30:33;99841.13;;;10.16;100.00
65997;BME280;52765;52.258;21.052;2023-04-15T02:32:59;99845.66;;;10.15;100.00
65997;BME280;52765;52.258;21.052;2023-04-15T02:35:25;99847.84;;;10.20;100.00
65997;BME280;52765;52.258;21.052;2023-04-15T02:37:51;99852.41;;;10.19;100.00
65997;BME280;52765;52.258;21.052;2023-04-15T02:40:16;99845.84;;;10.22;100.00
65997;BME280;52765;52.258;21.052;2023-04-15T02:42:42;99845.84;;;10.22;100.00
65997;BME280;52765;52.258;21.052;2023-04-15T02:45:09;99841.31;;;10.23;100.00
65997;BME280;52765;52.258;21.052;2023-04-15T02:47:36;99841.16;;;10.24;100.00
65997;BME280;52765;52.258;21.052;2023-04-15T02:50:04;99842.63;;;10.18;100.00
65997;BME280;52765;52.258;21.052;2023-04-15T02:52:29;99844.50;;;10.18;100.00
65997;BME280;52765;52.258;21.052;2023-04-15T02:54:55;99844.31;;;10.11;100.00
65997;BME280;52765;52.258;21.052;2023-04-15T02:57:27;99840.44;;;10.14;100.00
65997;BME280;52765;52.258;21.052;2023-04-15T02:59:56;99841.31;;;10.14;100.00
65997;BME280;52765;52.258;21.052;2023-04-15T03:02:21;99839.28;;;10.16;100.00
65997;BME280;52765;52.258;21.052;2023-04-15T03:04:47;99839.44;;;10.15;100.00
65997;BME280;52765;52.258;21.052;2023-04-15T03:07:16;99847.03;;;10.19;100.00
65997;BME280;52765;52.258;21.052;2023-04-15T03:09:41;99847.69;;;10.22;100.00
65997;BME280;52765;52.258;21.052;2023-04-15T03:12:07;99841.66;;;10.19;100.00
65997;BME280;52765;52.258;21.052;2023-04-15T03:14:32;99845.00;;;10.22;100.00
65997;BME280;52765;52.258;21.052;2023-04-15T03:16:58;99842.63;;;10.18;100.00
65997;BME280;52765;52.258;21.052;2023-04-15T03:19:24;99849.88;;;10.10;100.00
65997;BME280;52765;52.258;21.052;2023-04-15T03:21:49;99838.28;;;10.09;100.00
65997;BME280;52765;52.258;21.052;2023-04-15T03:24:16;99838.78;;;10.13;100.00
65997;BME280;52765;52.258;21.052;2023-04-15T03:26:42;99831.69;;;10.12;100.00
65997;BME280;52765;52.258;21.052;2023-04-15T03:29:07;99842.31;;;10.13;100.00
65997;BME280;52765;52.258;21.052;2023-04-15T03:31:33;99843.50;;;10.11;100.00
65997;BME280;52765;52.258;21.052;2023-04-15T03:33:58;99840.44;;;10.06;100.00
65997;BME280;52765;52.258;21.052;2023-04-15T03:36:24;99851.72;;;10.01;100.00
65997;BME280;52765;52.258;21.052;2023-04-15T03:38:50;99845.78;;;9.97;100.00
65997;BME280;52765;52.258;21.052;2023-04-15T03:41:15;99846.84;;;10.05;100.00
65997;BME280;52765;52.258;21.052;2023-04-15T03:43:41;99844.31;;;10.11;100.00
65997;BME280;52765;52.258;21.052;2023-04-15T03:46:07;99846.00;;;10.12;100.00
65997;BME280;52765;52.258;21.052;2023-04-15T03:48:32;99836.41;;;10.02;100.00
65997;BME280;52765;52.258;21.052;2023-04-15T03:50:57;99850.88;;;10.09;100.00
65997;BME280;52765;52.258;21.052;2023-04-15T03:53:23;99849.38;;;10.06;100.00
65997;BME280;52765;52.258;21.052;2023-04-15T03:55:48;99854.03;;;10.04;100.00
65997;BME280;52765;52.258;21.052;2023-04-15T03:58:14;99853.72;;;10.07;100.00
65997;BME280;52765;52.258;21.052;2023-04-15T04:00:40;99848.34;;;10.07;100.00
65997;BME280;52765;52.258;21.052;2023-04-15T04:03:05;99852.72;;;10.00;100.00
65997;BME280;52765;52.258;21.052;2023-04-15T04:05:31;99853.88;;;9.97;100.00
65997;BME280;52765;52.258;21.052;2023-04-15T04:07:56;99845.63;;;9.99;100.00
65997;BME280;52765;52.258;21.052;2023-04-15T04:10:22;99848.84;;;10.03;100.00
65997;BME280;52765;52.258;21.052;2023-04-15T04:12:47;99848.50;;;10.06;100.00
65997;BME280;52765;52.258;21.052;2023-04-15T04:15:13;99862.31;;;10.03;100.00
65997;BME280;52765;52.258;21.052;2023-04-15T04:17:38;99851.34;;;10.04;100.00
65997;BME280;52765;52.258;21.052;2023-04-15T04:20:04;99856.75;;;10.04;100.00
65997;BME280;52765;52.258;21.052;2023-04-15T04:22:30;99849.84;;;9.93;100.00
65997;BME280;52765;52.258;21.052;2023-04-15T04:24:55;99861.94;;;9.89;100.00
65997;BME280;52765;52.258;21.052;2023-04-15T04:27:21;99851.50;;;9.86;100.00
65997;BME280;52765;52.258;21.052;2023-04-15T04:29:46;99856.56;;;9.89;100.00
65997;BME280;52765;52.258;21.052;2023-04-15T04:32:14;99857.41;;;9.90;100.00
65997;BME280;52765;52.258;21.052;2023-04-15T04:34:39;99856.22;;;9.92;100.00
65997;BME280;52765;52.258;21.052;2023-04-15T04:37:05;99852.88;;;9.98;100.00
65997;BME280;52765;52.258;21.052;2023-04-15T04:39:31;99855.41;;;10.00;100.00
65997;BME280;52765;52.258;21.052;2023-04-15T04:41:56;99852.38;;;9.95;100.00
65997;BME280;52765;52.258;21.052;2023-04-15T04:44:22;99858.06;;;9.92;100.00
65997;BME280;52765;52.258;21.052;2023-04-15T04:46:47;99856.22;;;9.92;100.00
65997;BME280;52765;52.258;21.052;2023-04-15T04:49:13;99858.41;;;9.97;100.00
65997;BME280;52765;52.258;21.052;2023-04-15T04:51:38;99863.78;;;9.97;100.00
65997;BME280;52765;52.258;21.052;2023-04-15T04:54:04;99852.38;;;9.95;100.00
65997;BME280;52765;52.258;21.052;2023-04-15T04:56:29;99855.38;;;9.92;100.00
65997;BME280;52765;52.258;21.052;2023-04-15T04:58:54;99856.03;;;9.86;100.00
65997;BME280;52765;52.258;21.052;2023-04-15T05:01:20;99854.72;;;9.90;100.00
65997;BME280;52765;52.258;21.052;2023-04-15T05:03:46;99856.72;;;9.88;100.00
65997;BME280;52765;52.258;21.052;2023-04-15T05:06:11;99856.91;;;9.86;100.00
65997;BME280;52765;52.258;21.052;2023-04-15T05:08:36;99869.66;;;9.92;100.00
65997;BME280;52765;52.258;21.052;2023-04-15T05:11:02;99863.97;;;9.95;100.00
65997;BME280;52765;52.258;21.052;2023-04-15T05:13:28;99859.25;;;9.97;100.00
65997;BME280;52765;52.258;21.052;2023-04-15T05:15:54;99865.50;;;10.06;100.00
65997;BME280;52765;52.258;21.052;2023-04-15T05:18:20;99860.78;;;10.00;100.00
65997;BME280;52765;52.258;21.052;2023-04-15T05:20:45;99869.19;;;9.97;100.00
65997;BME280;52765;52.258;21.052;2023-04-15T05:23:11;99865.50;;;9.98;100.00
65997;BME280;52765;52.258;21.052;2023-04-15T05:25:36;99865.50;;;9.98;100.00
65997;BME280;52765;52.258;21.052;2023-04-15T05:28:01;99861.63;;;10.00;100.00
65997;BME280;52765;52.258;21.052;2023-04-15T05:30:27;99866.84;;;10.02;100.00
65997;BME280;52765;52.258;21.052;2023-04-15T05:32:52;99858.91;;;10.00;100.00
65997;BME280;52765;52.258;21.052;2023-04-15T05:35:18;99867.34;;;10.06;100.00
65997;BME280;52765;52.258;21.052;2023-04-15T05:37:44;99866.16;;;10.00;100.00
65997;BME280;52765;52.258;21.052;2023-04-15T05:40:09;99867.50;;;10.04;100.00
65997;BME280;52765;52.258;21.052;2023-04-15T05:42:35;99867.88;;;10.09;100.00
65997;BME280;52765;52.258;21.052;2023-04-15T05:45:01;99876.47;;;10.13;100.00
65997;BME280;52765;52.258;21.052;2023-04-15T05:47:29;99867.53;;;10.12;100.00
65997;BME280;52765;52.258;21.052;2023-04-15T05:49:55;99874.09;;;10.10;100.00
65997;BME280;52765;52.258;21.052;2023-04-15T05:52:20;99874.09;;;10.10;100.00
65997;BME280;52765;52.258;21.052;2023-04-15T05:54:46;99871.56;;;10.08;100.00
65997;BME280;52765;52.258;21.052;2023-04-15T05:57:11;99876.28;;;10.06;100.00
65997;BME280;52765;52.258;21.052;2023-04-15T05:59:37;99879.28;;;10.03;100.00
65997;BME280;52765;52.258;21.052;2023-04-15T06:02:03;99884.69;;;10.03;100.00
65997;BME280;52765;52.258;21.052;2023-04-15T06:04:29;99869.69;;;10.00;100.00
65997;BME280;52765;52.258;21.052;2023-04-15T06:06:55;99873.25;;;10.01;100.00
65997;BME280;52765;52.258;21.052;2023-04-15T06:09:20;99878.78;;;9.99;100.00
65997;BME280;52765;52.258;21.052;2023-04-15T06:11:45;99874.22;;;10.00;100.00
65997;BME280;52765;52.258;21.052;2023-04-15T06:14:11;99875.38;;;9.97;100.00
65997;BME280;52765;52.258;21.052;2023-04-15T06:16:36;99885.16;;;9.98;100.00
65997;BME280;52765;52.258;21.052;2023-04-15T06:19:02;99879.94;;;9.97;100.00
65997;BME280;52765;52.258;21.052;2023-04-15T06:21:28;99881.63;;;9.98;100.00
65997;BME280;52765;52.258;21.052;2023-04-15T06:23:54;99886.50;;;9.94;100.00
65997;BME280;52765;52.258;21.052;2023-04-15T06:26:20;99884.50;;;9.96;100.00
65997;BME280;52765;52.258;21.052;2023-04-15T06:28:46;99896.09;;;9.97;100.00
65997;BME280;52765;52.258;21.052;2023-04-15T06:31:11;99893.41;;;9.97;100.00
65997;BME280;52765;52.258;21.052;2023-04-15T06:33:37;99892.41;;;9.98;100.00
65997;BME280;52765;52.258;21.052;2023-04-15T06:36:04;99889.56;;;9.99;100.00
65997;BME280;52765;52.258;21.052;2023-04-15T06:38:30;99892.06;;;10.01;100.00
65997;BME280;52765;52.258;21.052;2023-04-15T06:40:55;99901.50;;;10.05;100.00
65997;BME280;52765;52.258;21.052;2023-04-15T06:43:20;99886.84;;;9.99;100.00
65997;BME280;52765;52.258;21.052;2023-04-15T06:45:46;99892.06;;;10.01;100.00
65997;BME280;52765;52.258;21.052;2023-04-15T06:48:11;99897.63;;;9.99;100.00
65997;BME280;52765;52.258;21.052;2023-04-15T06:50:37;99898.09;;;9.95;100.00
65997;BME280;52765;52.258;21.052;2023-04-15T06:53:02;99891.72;;;9.96;100.00
65997;BME280;52765;52.258;21.052;2023-04-15T06:55:28;99899.25;;;9.92;100.00
65997;BME280;52765;52.258;21.052;2023-04-15T06:57:53;99904.47;;;9.94;100.00
65997;BME280;52765;52.258;21.052;2023-04-15T07:00:19;99902.31;;;9.97;100.00
65997;BME280;52765;52.258;21.052;2023-04-15T07:02:46;99903.66;;;9.93;100.00
65997;BME280;52765;52.258;21.052;2023-04-15T07:05:13;99907.50;;;9.91;100.00
65997;BME280;52765;52.258;21.052;2023-04-15T07:07:38;99911.72;;;9.93;100.00
65997;BME280;52765;52.258;21.052;2023-04-15T07:10:04;99911.56;;;9.95;100.00
65997;BME280;52765;52.258;21.052;2023-04-15T07:12:30;99912.91;;;9.99;100.00
65997;BME280;52765;52.258;21.052;2023-04-15T07:14:55;99913.59;;;10.01;100.00
65997;BME280;52765;52.258;21.052;2023-04-15T07:17:21;99909.72;;;10.04;100.00
65997;BME280;52765;52.258;21.052;2023-04-15T07:19:49;99916.97;;;10.03;100.00
65997;BME280;52765;52.258;21.052;2023-04-15T07:22:15;99914.94;;;10.05;100.00
65997;BME280;52765;52.258;21.052;2023-04-15T07:24:40;99920.84;;;10.09;100.00
65997;BME280;52765;52.258;21.052;2023-04-15T07:27:05;99910.41;;;10.06;100.00
65997;BME280;52765;52.258;21.052;2023-04-15T07:29:31;99921.53;;;10.11;100.00
65997;BME280;52765;52.258;21.052;2023-04-15T07:31:58;99919.53;;;10.13;100.00
65997;BME280;52765;52.258;21.052;2023-04-15T07:34:23;99910.09;;;10.17;100.00
65997;BME280;52765;52.258;21.052;2023-04-15T07:36:49;99919.53;;;10.21;100.00
65997;BME280;52765;52.258;21.052;2023-04-15T07:39:16;99916.88;;;10.29;100.00
65997;BME280;52765;52.258;21.052;2023-04-15T07:41:42;99921.75;;;10.34;100.00
65997;BME280;52765;52.258;21.052;2023-04-15T07:44:07;99910.44;;;10.30;100.00
65997;BME280;52765;52.258;21.052;2023-04-15T07:46:36;99923.13;;;10.38;100.00
65997;BME280;52765;52.258;21.052;2023-04-15T07:49:03;99917.06;;;10.36;100.00
65997;BME280;52765;52.258;21.052;2023-04-15T07:51:30;99913.69;;;10.34;100.00
65997;BME280;52765;52.258;21.052;2023-04-15T07:53:56;99913.69;;;10.34;100.00
65997;BME280;52765;52.258;21.052;2023-04-15T07:56:22;99915.06;;;10.38;100.00
65997;BME280;52765;52.258;21.052;2023-04-15T07:58:47;99923.47;;;10.43;100.00
65997;BME280;52765;52.258;21.052;2023-04-15T08:01:12;99916.38;;;10.34;100.00
65997;BME280;52765;52.258;21.052;2023-04-15T08:03:38;99913.69;;;10.34;100.00
65997;BME280;52765;52.258;21.052;2023-04-15T08:06:03;99921.94;;;10.32;100.00
65997;BME280;52765;52.258;21.052;2023-04-15T08:08:29;99913.47;;;10.27;100.00
65997;BME280;52765;52.258;21.052;2023-04-15T08:10:55;99917.69;;;10.30;100.00
65997;BME280;52765;52.258;21.052;2023-04-15T08:13:24;99917.91;;;10.36;100.00
65997;BME280;52765;52.258;21.052;2023-04-15T08:16:38;99911.69;;;10.36;100.00
65997;BME280;52765;52.258;21.052;2023-04-15T08:18:39;99907.66;;;10.40;100.00
65997;BME280;52765;52.258;21.052;2023-04-15T08:21:04;99917.91;;;10.36;100.00
65997;BME280;52765;52.258;21.052;2023-04-15T08:23:30;99920.28;;;10.40;100.00
65997;BME280;52765;52.258;21.052;2023-04-15T08:25:57;99915.72;;;10.48;100.00
65997;BME280;52765;52.258;21.052;2023-04-15T08:28:23;99914.75;;;10.58;100.00
65997;BME280;52765;52.258;21.052;2023-04-15T08:30:48;99919.09;;;10.67;100.00
65997;BME280;52765;52.258;21.052;2023-04-15T08:33:18;99917.44;;;10.66;100.00
65997;BME280;52765;52.258;21.052;2023-04-15T08:35:43;99923.66;;;10.66;100.00
65997;BME280;52765;52.258;21.052;2023-04-15T08:38:09;99924.00;;;10.63;100.00
65997;BME280;52765;52.258;21.052;2023-04-15T08:40:43;99917.94;;;10.69;100.00
65997;BME280;52765;52.258;21.052;2023-04-15T08:43:14;99913.72;;;10.75;100.00
65997;BME280;52765;52.258;21.052;2023-04-15T08:45:40;99917.78;;;10.79;100.00
65997;BME280;52765;52.258;21.052;2023-04-15T08:48:08;99915.91;;;10.80;100.00
65997;BME280;52765;52.258;21.052;2023-04-15T08:50:39;99923.16;;;10.79;100.00
65997;BME280;52765;52.258;21.052;2023-04-15T08:53:05;99925.66;;;10.81;100.00
65997;BME280;52765;52.258;21.052;2023-04-15T08:55:32;99927.84;;;10.77;100.00
65997;BME280;52765;52.258;21.052;2023-04-15T08:58:01;99922.47;;;10.77;100.00
65997;BME280;52765;52.258;21.052;2023-04-15T09:00:28;99929.72;;;10.77;100.00
65997;BME280;52765;52.258;21.052;2023-04-15T09:02:58;99927.03;;;10.85;100.00
65997;BME280;52765;52.258;21.052;2023-04-15T09:05:26;99921.31;;;10.96;100.00
65997;BME280;52765;52.258;21.052;2023-04-15T09:07:55;99923.81;;;11.06;100.00
65997;BME280;52765;52.258;21.052;2023-04-15T09:10:20;99927.84;;;11.10;100.00
65997;BME280;52765;52.258;21.052;2023-04-15T09:12:46;99924.63;;;11.15;100.00
65997;BME280;52765;52.258;21.052;2023-04-15T09:15:11;99923.75;;;11.22;100.00
65997;BME280;52765;52.258;21.052;2023-04-15T09:17:44;99920.06;;;11.23;100.00
65997;BME280;52765;52.258;21.052;2023-04-15T09:20:13;99931.53;;;11.17;100.00
65997;BME280;52765;52.258;21.052;2023-04-15T09:22:40;99926.13;;;11.17;100.00
65997;BME280;52765;52.258;21.052;2023-04-15T09:25:28;99931.69;;;11.16;100.00
65997;BME280;52765;52.258;21.052;2023-04-15T09:28:00;99929.53;;;11.19;100.00
65997;BME280;52765;52.258;21.052;2023-04-15T09:30:28;99932.56;;;11.24;100.00
65997;BME280;52765;52.258;21.052;2023-04-15T09:32:59;99928.81;;;11.25;100.00
65997;BME280;52765;52.258;21.052;2023-04-15T09:35:26;99928.66;;;11.27;100.00
65997;BME280;52765;52.258;21.052;2023-04-15T09:37:53;99933.41;;;11.08;100.00
65997;BME280;52765;52.258;21.052;2023-04-15T09:40:38;99927.53;;;10.97;100.00
65997;BME280;52765;52.258;21.052;2023-04-15T09:43:04;99933.25;;;10.85;100.00
65997;BME280;52765;52.258;21.052;2023-04-15T09:45:31;99941.66;;;10.82;100.00
65997;BME280;52765;52.258;21.052;2023-04-15T09:47:58;99947.59;;;10.86;100.00
65997;BME280;52765;52.258;21.052;2023-04-15T09:50:28;99945.72;;;10.86;100.00
65997;BME280;52765;52.258;21.052;2023-04-15T09:52:55;99939.84;;;10.91;100.00
65997;BME280;52765;52.258;21.052;2023-04-15T09:55:20;99934.78;;;10.96;100.00
65997;BME280;52765;52.258;21.052;2023-04-15T09:57:46;99945.22;;;11.07;100.00
65997;BME280;52765;52.258;21.052;2023-04-15T10:00:13;99948.22;;;11.21;100.00
65997;BME280;52765;52.258;21.052;2023-04-15T10:02:39;99943.66;;;11.29;100.00
65997;BME280;52765;52.258;21.052;2023-04-15T10:05:09;99943.66;;;11.38;100.00
65997;BME280;52765;52.258;21.052;2023-04-15T10:07:35;99947.16;;;11.46;100.00
65997;BME280;52765;52.258;21.052;2023-04-15T10:10:02;99934.97;;;11.59;100.00
65997;BME280;52765;52.258;21.052;2023-04-15T10:12:29;99950.13;;;11.68;100.00
65997;BME280;52765;52.258;21.052;2023-04-15T10:14:59;99951.75;;;11.77;100.00
65997;BME280;52765;52.258;21.052;2023-04-15T10:17:29;99947.22;;;11.78;100.00
65997;BME280;52765;52.258;21.052;2023-04-15T10:20:00;99948.72;;;11.80;100.00
65997;BME280;52765;52.258;21.052;2023-04-15T10:22:30;99944.34;;;11.79;100.00
65997;BME280;52765;52.258;21.052;2023-04-15T10:24:57;99934.09;;;11.75;100.00
65997;BME280;52765;52.258;21.052;2023-04-15T10:27:27;99938.09;;;11.79;100.00
65997;BME280;52765;52.258;21.052;2023-04-15T10:29:53;99948.88;;;11.95;100.00
65997;BME280;52765;52.258;21.052;2023-04-15T10:32:20;99945.28;;;12.03;100.00
65997;BME280;52765;52.258;21.052;2023-04-15T10:34:47;99939.91;;;12.03;100.00
65997;BME280;52765;52.258;21.052;2023-04-15T10:37:32;99946.00;;;11.89;100.00
65997;BME280;52765;52.258;21.052;2023-04-15T10:39:58;99946.06;;;11.72;100.00
65997;BME280;52765;52.258;21.052;2023-04-15T10:42:32;99952.03;;;11.51;100.00
65997;BME280;52765;52.258;21.052;2023-04-15T10:44:58;99950.53;;;11.40;100.00
65997;BME280;52765;52.258;21.052;2023-04-15T10:47:24;99946.50;;;11.36;100.00
65997;BME280;52765;52.258;21.052;2023-04-15T10:49:57;99948.03;;;11.30;100.00
65997;BME280;52765;52.258;21.052;2023-04-15T10:52:25;99949.38;;;11.35;100.00
65997;BME280;52765;52.258;21.052;2023-04-15T10:57:33;99946.66;;;11.51;100.00
65997;BME280;52765;52.258;21.052;2023-04-15T11:00:08;99948.00;;;11.47;100.00
65997;BME280;52765;52.258;21.052;2023-04-15T11:05:15;99936.66;;;11.60;100.00
65997;BME280;52765;52.258;21.052;2023-04-15T11:08:17;99908.22;;;11.49;100.00
65997;BME280;52765;52.258;21.052;2023-04-15T11:13:14;99942.50;;;11.80;100.00
65997;BME280;52765;52.258;21.052;2023-04-15T11:15:45;99940.44;;;11.82;100.00
65997;BME280;52765;52.258;21.052;2023-04-15T11:20:51;99943.97;;;11.91;100.00
65997;BME280;52765;52.258;21.052;2023-04-15T11:23:46;99941.81;;;11.94;100.00
65997;BME280;52765;52.258;21.052;2023-04-15T11:26:12;99937.56;;;11.92;100.00
65997;BME280;52765;52.258;21.052;2023-04-15T11:28:39;99949.38;;;11.91;100.00
65997;BME280;52765;52.258;21.052;2023-04-15T11:33:34;99947.69;;;11.90;100.00
65997;BME280;52765;52.258;21.052;2023-04-15T11:36:00;99952.63;;;11.78;100.00
65997;BME280;52765;52.258;21.052;2023-04-15T11:38:25;99942.19;;;11.75;100.00
65997;BME280;52765;52.258;21.052;2023-04-15T11:40:52;99946.91;;;11.73;100.00
65997;BME280;52765;52.258;21.052;2023-04-15T11:43:22;99945.88;;;11.74;100.00
65997;BME280;52765;52.258;21.052;2023-04-15T11:45:58;99944.22;;;11.73;100.00
65997;BME280;52765;52.258;21.052;2023-04-15T11:48:26;99941.19;;;11.68;100.00
65997;BME280;52765;52.258;21.052;2023-04-15T11:51:00;99950.47;;;11.65;100.00
65997;BME280;52765;52.258;21.052;2023-04-15T11:56:19;99955.25;;;11.38;100.00
65997;BME280;52765;52.258;21.052;2023-04-15T11:58:45;99966.41;;;11.27;100.00
65997;BME280;52765;52.258;21.052;2023-04-15T12:01:11;99967.28;;;11.11;100.00
65997;BME280;52765;52.258;21.052;2023-04-15T12:03:40;99962.38;;;11.15;100.00
65997;BME280;52765;52.258;21.052;2023-04-15T12:06:18;99973.31;;;11.29;100.00
65997;BME280;52765;52.258;21.052;2023-04-15T12:11:40;99982.13;;;11.79;100.00
65997;BME280;52765;52.258;21.052;2023-04-15T12:16:39;99987.09;;;12.07;100.00
65997;BME280;52765;52.258;21.052;2023-04-15T12:19:13;99989.78;;;12.15;100.00
65997;BME280;52765;52.258;21.052;2023-04-15T12:21:44;99986.91;;;12.17;100.00
65997;BME280;52765;52.258;21.052;2023-04-15T12:24:11;99985.72;;;12.19;100.00
65997;BME280;52765;52.258;21.052;2023-04-15T12:26:45;99997.88;;;12.15;100.00
65997;BME280;52765;52.258;21.052;2023-04-15T12:29:13;100002.13;;;12.10;100.00
65997;BME280;52765;52.258;21.052;2023-04-15T12:32:17;100003.44;;;12.14;100.00
65997;BME280;52765;52.258;21.052;2023-04-15T12:34:51;100005.28;;;12.21;100.00
65997;BME280;52765;52.258;21.052;2023-04-15T12:37:18;100014.53;;;12.27;100.00
65997;BME280;52765;52.258;21.052;2023-04-15T12:39:45;100012.00;;;12.26;100.00
65997;BME280;52765;52.258;21.052;2023-04-15T12:42:14;100005.09;;;12.23;100.00
65997;BME280;52765;52.258;21.052;2023-04-15T12:44:48;100005.78;;;12.17;100.00
65997;BME280;52765;52.258;21.052;2023-04-15T12:47:14;100014.56;;;12.19;100.00
65997;BME280;52765;52.258;21.052;2023-04-15T12:49:55;100017.22;;;12.27;100.00
65997;BME280;52765;52.258;21.052;2023-04-15T12:52:22;100013.47;;;12.36;100.00
65997;BME280;52765;52.258;21.052;2023-04-15T12:54:48;100019.50;;;12.47;100.00
65997;BME280;52765;52.258;21.052;2023-04-15T12:57:13;100017.28;;;12.50;100.00
65997;BME280;52765;52.258;21.052;2023-04-15T12:59:42;100016.97;;;12.45;100.00
65997;BME280;52765;52.258;21.052;2023-04-15T13:02:07;100027.63;;;12.38;100.00
65997;BME280;52765;52.258;21.052;2023-04-15T13:04:33;100034.94;;;12.30;100.00